sensor_id;sensor_type;location;lat;lon;timestamp;P1;durP1;ratioP1;P2;durP2;ratioP2
25780;SDS011;13626;48.128;11.628;2022-10-17T00:01:36;5.53;;;2.60;;
25780;SDS011;13626;48.128;11.628;2022-10-17T00:04:03;4.28;;;2.00;;
25780;SDS011;13626;48.128;11.628;2022-10-17T00:06:30;2.47;;;2.20;;
25780;SDS011;13626;48.128;11.628;2022-10-17T00:08:57;5.10;;;2.35;;
25780;SDS011;13626;48.128;11.628;2022-10-17T00:11:24;3.35;;;2.20;;
25780;SDS011;13626;48.128;11.628;2022-10-17T00:13:52;4.13;;;2.55;;
25780;SDS011;13626;48.128;11.628;2022-10-17T00:16:26;5.18;;;2.42;;
25780;SDS011;13626;48.128;11.628;2022-10-17T00:18:54;2.53;;;2.33;;
25780;SDS011;13626;48.128;11.628;2022-10-17T00:21:21;4.38;;;2.65;;
25780;SDS011;13626;48.128;11.628;2022-10-17T00:23:49;3.47;;;2.42;;
25780;SDS011;13626;48.128;11.628;2022-10-17T00:26:16;4.00;;;2.88;;
25780;SDS011;13626;48.128;11.628;2022-10-17T00:28:47;3.35;;;2.63;;
25780;SDS011;13626;48.128;11.628;2022-10-17T00:31:15;3.50;;;2.20;;
25780;SDS011;13626;48.128;11.628;2022-10-17T00:33:43;5.97;;;2.30;;
25780;SDS011;13626;48.128;11.628;2022-10-17T00:38:42;4.72;;;2.42;;
25780;SDS011;13626;48.128;11.628;2022-10-17T00:41:10;4.85;;;2.58;;
25780;SDS011;13626;48.128;11.628;2022-10-17T00:46:35;7.57;;;2.20;;
25780;SDS011;13626;48.128;11.628;2022-10-17T00:49:07;3.85;;;2.25;;
25780;SDS011;13626;48.128;11.628;2022-10-17T00:51:40;3.03;;;2.25;;
25780;SDS011;13626;48.128;11.628;2022-10-17T00:54:08;4.70;;;2.50;;
25780;SDS011;13626;48.128;11.628;2022-10-17T00:56:37;2.92;;;2.50;;
25780;SDS011;13626;48.128;11.628;2022-10-17T00:59:08;4.88;;;3.90;;
25780;SDS011;13626;48.128;11.628;2022-10-17T01:01:37;3.85;;;2.60;;
25780;SDS011;13626;48.128;11.628;2022-10-17T01:04:04;3.08;;;2.47;;
25780;SDS011;13626;48.128;11.628;2022-10-17T01:06:31;6.97;;;2.55;;
25780;SDS011;13626;48.128;11.628;2022-10-17T01:08:58;3.53;;;2.35;;
25780;SDS011;13626;48.128;11.628;2022-10-17T01:14:01;2.30;;;2.10;;
25780;SDS011;13626;48.128;11.628;2022-10-17T01:21:49;2.65;;;2.40;;
25780;SDS011;13626;48.128;11.628;2022-10-17T01:25:06;4.03;;;2.20;;
25780;SDS011;13626;48.128;11.628;2022-10-17T01:37:40;8.18;;;3.60;;
25780;SDS011;13626;48.128;11.628;2022-10-17T01:40:13;5.13;;;2.42;;
25780;SDS011;13626;48.128;11.628;2022-10-17T01:45:42;10.00;;;3.45;;
25780;SDS011;13626;48.128;11.628;2022-10-17T01:48:13;6.53;;;2.70;;
25780;SDS011;13626;48.128;11.628;2022-10-17T01:50:43;3.70;;;2.35;;
25780;SDS011;13626;48.128;11.628;2022-10-17T01:53:17;4.25;;;2.60;;
25780;SDS011;13626;48.128;11.628;2022-10-17T01:55:45;3.65;;;2.50;;
25780;SDS011;13626;48.128;11.628;2022-10-17T01:58:21;5.65;;;2.50;;
25780;SDS011;13626;48.128;11.628;2022-10-17T02:00:50;3.65;;;2.67;;
25780;SDS011;13626;48.128;11.628;2022-10-17T02:03:18;4.15;;;2.50;;
25780;SDS011;13626;48.128;11.628;2022-10-17T02:05:47;2.63;;;2.20;;
25780;SDS011;13626;48.128;11.628;2022-10-17T02:08:23;5.28;;;2.50;;
25780;SDS011;13626;48.128;11.628;2022-10-17T02:10:58;4.05;;;2.63;;
25780;SDS011;13626;48.128;11.628;2022-10-17T02:19:00;6.60;;;2.28;;
25780;SDS011;13626;48.128;11.628;2022-10-17T02:24:29;3.97;;;2.25;;
25780;SDS011;13626;48.128;11.628;2022-10-17T02:27:04;4.95;;;2.13;;
25780;SDS011;13626;48.128;11.628;2022-10-17T02:29:35;4.70;;;2.47;;
25780;SDS011;13626;48.128;11.628;2022-10-17T02:32:03;3.92;;;2.22;;
25780;SDS011;13626;48.128;11.628;2022-10-17T02:34:38;3.13;;;2.08;;
25780;SDS011;13626;48.128;11.628;2022-10-17T02:37:06;2.83;;;1.77;;
25780;SDS011;13626;48.128;11.628;2022-10-17T02:39:35;7.75;;;2.50;;
25780;SDS011;13626;48.128;11.628;2022-10-17T02:42:04;3.85;;;2.33;;
25780;SDS011;13626;48.128;11.628;2022-10-17T02:44:32;4.30;;;2.30;;
25780;SDS011;13626;48.128;11.628;2022-10-17T02:47:06;3.72;;;2.10;;
25780;SDS011;13626;48.128;11.628;2022-10-17T02:49:35;6.30;;;2.30;;
25780;SDS011;13626;48.128;11.628;2022-10-17T02:52:07;4.28;;;2.00;;
25780;SDS011;13626;48.128;11.628;2022-10-17T02:54:44;4.88;;;2.28;;
25780;SDS011;13626;48.128;11.628;2022-10-17T02:59:40;4.40;;;1.90;;
25780;SDS011;13626;48.128;11.628;2022-10-17T03:02:10;3.58;;;2.17;;
25780;SDS011;13626;48.128;11.628;2022-10-17T03:04:37;6.13;;;2.15;;
25780;SDS011;13626;48.128;11.628;2022-10-17T03:07:04;4.30;;;2.15;;
25780;SDS011;13626;48.128;11.628;2022-10-17T03:09:31;4.35;;;1.80;;
25780;SDS011;13626;48.128;11.628;2022-10-17T03:11:58;3.13;;;2.15;;
25780;SDS011;13626;48.128;11.628;2022-10-17T03:14:25;4.82;;;2.25;;
25780;SDS011;13626;48.128;11.628;2022-10-17T03:16:52;3.67;;;1.83;;
25780;SDS011;13626;48.128;11.628;2022-10-17T03:19:20;3.17;;;2.05;;
25780;SDS011;13626;48.128;11.628;2022-10-17T03:21:47;5.15;;;2.30;;
25780;SDS011;13626;48.128;11.628;2022-10-17T03:24:14;4.80;;;1.85;;
25780;SDS011;13626;48.128;11.628;2022-10-17T03:26:41;6.57;;;2.03;;
25780;SDS011;13626;48.128;11.628;2022-10-17T03:29:08;3.40;;;2.10;;
25780;SDS011;13626;48.128;11.628;2022-10-17T03:31:35;3.20;;;2.40;;
25780;SDS011;13626;48.128;11.628;2022-10-17T03:34:03;5.05;;;2.00;;
25780;SDS011;13626;48.128;11.628;2022-10-17T03:36:30;4.22;;;1.70;;
25780;SDS011;13626;48.128;11.628;2022-10-17T03:38:57;3.05;;;1.90;;
25780;SDS011;13626;48.128;11.628;2022-10-17T03:41:24;2.40;;;1.90;;
25780;SDS011;13626;48.128;11.628;2022-10-17T03:43:51;4.70;;;2.38;;
25780;SDS011;13626;48.128;11.628;2022-10-17T03:46:19;1.88;;;1.67;;
25780;SDS011;13626;48.128;11.628;2022-10-17T03:48:46;3.95;;;1.98;;
25780;SDS011;13626;48.128;11.628;2022-10-17T03:51:13;4.55;;;2.15;;
25780;SDS011;13626;48.128;11.628;2022-10-17T03:53:41;2.83;;;1.70;;
25780;SDS011;13626;48.128;11.628;2022-10-17T03:56:09;3.72;;;1.60;;
25780;SDS011;13626;48.128;11.628;2022-10-17T03:58:36;2.65;;;1.90;;
25780;SDS011;13626;48.128;11.628;2022-10-17T04:01:04;3.03;;;2.00;;
25780;SDS011;13626;48.128;11.628;2022-10-17T04:03:32;2.42;;;1.75;;
25780;SDS011;13626;48.128;11.628;2022-10-17T04:05:59;3.53;;;2.20;;
25780;SDS011;13626;48.128;11.628;2022-10-17T04:08:27;2.03;;;1.80;;
25780;SDS011;13626;48.128;11.628;2022-10-17T04:10:57;2.90;;;1.63;;
25780;SDS011;13626;48.128;11.628;2022-10-17T04:13:24;3.72;;;2.03;;
25780;SDS011;13626;48.128;11.628;2022-10-17T04:15:55;4.82;;;2.13;;
25780;SDS011;13626;48.128;11.628;2022-10-17T04:18:23;5.63;;;2.15;;
25780;SDS011;13626;48.128;11.628;2022-10-17T04:20:50;3.70;;;2.15;;
25780;SDS011;13626;48.128;11.628;2022-10-17T04:23:17;2.95;;;2.25;;
25780;SDS011;13626;48.128;11.628;2022-10-17T04:25:45;2.92;;;2.20;;
25780;SDS011;13626;48.128;11.628;2022-10-17T04:28:12;5.45;;;2.30;;
25780;SDS011;13626;48.128;11.628;2022-10-17T04:30:39;2.10;;;1.90;;
25780;SDS011;13626;48.128;11.628;2022-10-17T04:33:10;3.78;;;2.10;;
25780;SDS011;13626;48.128;11.628;2022-10-17T04:35:37;2.05;;;1.75;;
25780;SDS011;13626;48.128;11.628;2022-10-17T04:38:04;4.70;;;2.22;;
25780;SDS011;13626;48.128;11.628;2022-10-17T04:40:32;3.92;;;2.40;;
25780;SDS011;13626;48.128;11.628;2022-10-17T04:42:59;6.72;;;2.22;;
25780;SDS011;13626;48.128;11.628;2022-10-17T04:45:26;4.72;;;2.20;;
25780;SDS011;13626;48.128;11.628;2022-10-17T04:47:53;3.40;;;2.20;;
25780;SDS011;13626;48.128;11.628;2022-10-17T04:50:20;4.25;;;2.45;;
25780;SDS011;13626;48.128;11.628;2022-10-17T04:52:47;3.53;;;2.20;;
25780;SDS011;13626;48.128;11.628;2022-10-17T04:55:14;2.78;;;2.30;;
25780;SDS011;13626;48.128;11.628;2022-10-17T04:57:42;3.90;;;2.63;;
25780;SDS011;13626;48.128;11.628;2022-10-17T05:00:09;3.10;;;2.50;;
25780;SDS011;13626;48.128;11.628;2022-10-17T05:02:36;3.22;;;2.00;;
25780;SDS011;13626;48.128;11.628;2022-10-17T05:05:04;5.10;;;2.60;;
25780;SDS011;13626;48.128;11.628;2022-10-17T05:07:31;2.90;;;2.42;;
25780;SDS011;13626;48.128;11.628;2022-10-17T05:09:58;4.82;;;2.30;;
25780;SDS011;13626;48.128;11.628;2022-10-17T05:12:25;5.55;;;2.58;;
25780;SDS011;13626;48.128;11.628;2022-10-17T05:14:53;6.28;;;2.30;;
25780;SDS011;13626;48.128;11.628;2022-10-17T05:17:20;3.72;;;2.08;;
25780;SDS011;13626;48.128;11.628;2022-10-17T05:19:47;3.95;;;2.50;;
25780;SDS011;13626;48.128;11.628;2022-10-17T05:22:14;5.50;;;2.90;;
25780;SDS011;13626;48.128;11.628;2022-10-17T05:24:41;4.57;;;2.70;;
25780;SDS011;13626;48.128;11.628;2022-10-17T05:27:09;3.13;;;2.22;;
25780;SDS011;13626;48.128;11.628;2022-10-17T05:29:36;4.55;;;2.40;;
25780;SDS011;13626;48.128;11.628;2022-10-17T05:32:04;3.63;;;2.42;;
25780;SDS011;13626;48.128;11.628;2022-10-17T05:34:32;6.43;;;2.55;;
25780;SDS011;13626;48.128;11.628;2022-10-17T05:36:59;3.85;;;2.45;;
25780;SDS011;13626;48.128;11.628;2022-10-17T05:39:26;3.53;;;2.42;;
25780;SDS011;13626;48.128;11.628;2022-10-17T05:41:54;3.92;;;2.80;;
25780;SDS011;13626;48.128;11.628;2022-10-17T05:44:21;6.68;;;2.75;;
25780;SDS011;13626;48.128;11.628;2022-10-17T05:46:48;3.90;;;2.30;;
25780;SDS011;13626;48.128;11.628;2022-10-17T05:49:15;3.47;;;2.55;;
25780;SDS011;13626;48.128;11.628;2022-10-17T05:51:58;4.63;;;2.65;;
25780;SDS011;13626;48.128;11.628;2022-10-17T05:54:25;5.72;;;2.50;;
25780;SDS011;13626;48.128;11.628;2022-10-17T05:56:53;3.30;;;2.40;;
25780;SDS011;13626;48.128;11.628;2022-10-17T05:59:20;3.65;;;2.58;;
25780;SDS011;13626;48.128;11.628;2022-10-17T06:01:47;6.38;;;2.83;;
25780;SDS011;13626;48.128;11.628;2022-10-17T06:04:14;3.55;;;2.60;;
25780;SDS011;13626;48.128;11.628;2022-10-17T06:06:42;3.20;;;2.55;;
25780;SDS011;13626;48.128;11.628;2022-10-17T06:09:09;4.05;;;2.40;;
25780;SDS011;13626;48.128;11.628;2022-10-17T06:11:36;5.05;;;2.60;;
25780;SDS011;13626;48.128;11.628;2022-10-17T06:14:03;3.33;;;2.53;;
25780;SDS011;13626;48.128;11.628;2022-10-17T06:16:30;3.30;;;2.25;;
25780;SDS011;13626;48.128;11.628;2022-10-17T06:18:57;3.63;;;2.65;;
25780;SDS011;13626;48.128;11.628;2022-10-17T06:21:25;3.67;;;2.60;;
25780;SDS011;13626;48.128;11.628;2022-10-17T06:23:53;3.67;;;2.95;;
25780;SDS011;13626;48.128;11.628;2022-10-17T06:26:20;4.75;;;2.78;;
25780;SDS011;13626;48.128;11.628;2022-10-17T06:28:47;4.88;;;2.72;;
25780;SDS011;13626;48.128;11.628;2022-10-17T06:31:15;6.18;;;2.97;;
25780;SDS011;13626;48.128;11.628;2022-10-17T06:33:42;7.28;;;2.95;;
25780;SDS011;13626;48.128;11.628;2022-10-17T06:36:10;4.90;;;3.33;;
25780;SDS011;13626;48.128;11.628;2022-10-17T06:38:37;5.10;;;3.08;;
25780;SDS011;13626;48.128;11.628;2022-10-17T06:41:09;5.57;;;2.85;;
25780;SDS011;13626;48.128;11.628;2022-10-17T06:43:39;6.57;;;3.03;;
25780;SDS011;13626;48.128;11.628;2022-10-17T06:46:06;5.75;;;3.20;;
25780;SDS011;13626;48.128;11.628;2022-10-17T06:48:33;5.80;;;3.33;;
25780;SDS011;13626;48.128;11.628;2022-10-17T06:51:01;6.40;;;2.72;;
25780;SDS011;13626;48.128;11.628;2022-10-17T06:53:30;7.70;;;2.97;;
25780;SDS011;13626;48.128;11.628;2022-10-17T06:55:58;5.45;;;3.25;;
25780;SDS011;13626;48.128;11.628;2022-10-17T06:58:30;3.75;;;3.10;;
25780;SDS011;13626;48.128;11.628;2022-10-17T07:01:01;8.07;;;2.95;;
25780;SDS011;13626;48.128;11.628;2022-10-17T07:03:29;5.85;;;2.88;;
25780;SDS011;13626;48.128;11.628;2022-10-17T07:05:57;5.65;;;2.80;;
25780;SDS011;13626;48.128;11.628;2022-10-17T07:08:24;4.68;;;2.75;;
25780;SDS011;13626;48.128;11.628;2022-10-17T07:10:52;4.35;;;2.83;;
25780;SDS011;13626;48.128;11.628;2022-10-17T07:13:19;4.57;;;2.58;;
25780;SDS011;13626;48.128;11.628;2022-10-17T07:15:46;8.15;;;2.90;;
25780;SDS011;13626;48.128;11.628;2022-10-17T07:18:14;3.80;;;3.00;;
25780;SDS011;13626;48.128;11.628;2022-10-17T07:20:41;3.70;;;2.78;;
25780;SDS011;13626;48.128;11.628;2022-10-17T07:23:08;3.15;;;2.70;;
25780;SDS011;13626;48.128;11.628;2022-10-17T07:25:35;5.80;;;3.10;;
25780;SDS011;13626;48.128;11.628;2022-10-17T07:28:05;3.83;;;2.90;;
25780;SDS011;13626;48.128;11.628;2022-10-17T07:30:32;11.43;;;3.25;;
25780;SDS011;13626;48.128;11.628;2022-10-17T07:32:59;3.72;;;2.65;;
25780;SDS011;13626;48.128;11.628;2022-10-17T07:35:27;6.28;;;2.97;;
25780;SDS011;13626;48.128;11.628;2022-10-17T07:37:54;5.05;;;2.80;;
25780;SDS011;13626;48.128;11.628;2022-10-17T07:40:21;7.53;;;2.85;;
25780;SDS011;13626;48.128;11.628;2022-10-17T07:42:48;5.32;;;3.33;;
25780;SDS011;13626;48.128;11.628;2022-10-17T07:45:15;7.70;;;3.55;;
25780;SDS011;13626;48.128;11.628;2022-10-17T07:47:42;5.60;;;3.13;;
25780;SDS011;13626;48.128;11.628;2022-10-17T07:50:10;4.53;;;2.85;;
25780;SDS011;13626;48.128;11.628;2022-10-17T07:52:37;6.68;;;3.60;;
25780;SDS011;13626;48.128;11.628;2022-10-17T07:55:04;5.20;;;2.97;;
25780;SDS011;13626;48.128;11.628;2022-10-17T07:57:32;3.45;;;2.88;;
25780;SDS011;13626;48.128;11.628;2022-10-17T08:00:00;6.50;;;3.20;;
25780;SDS011;13626;48.128;11.628;2022-10-17T08:02:27;4.43;;;3.03;;
25780;SDS011;13626;48.128;11.628;2022-10-17T08:04:54;4.88;;;3.30;;
25780;SDS011;13626;48.128;11.628;2022-10-17T08:07:22;4.05;;;3.00;;
25780;SDS011;13626;48.128;11.628;2022-10-17T08:09:54;4.75;;;3.17;;
25780;SDS011;13626;48.128;11.628;2022-10-17T08:12:24;7.07;;;3.20;;
25780;SDS011;13626;48.128;11.628;2022-10-17T08:14:51;3.22;;;2.92;;
25780;SDS011;13626;48.128;11.628;2022-10-17T08:17:18;4.07;;;2.83;;
25780;SDS011;13626;48.128;11.628;2022-10-17T08:19:46;6.55;;;3.30;;
25780;SDS011;13626;48.128;11.628;2022-10-17T08:22:13;5.65;;;3.05;;
25780;SDS011;13626;48.128;11.628;2022-10-17T08:24:40;3.40;;;3.10;;
25780;SDS011;13626;48.128;11.628;2022-10-17T08:27:08;4.18;;;3.30;;
25780;SDS011;13626;48.128;11.628;2022-10-17T08:29:38;4.32;;;3.00;;
25780;SDS011;13626;48.128;11.628;2022-10-17T08:32:05;4.57;;;3.00;;
25780;SDS011;13626;48.128;11.628;2022-10-17T08:34:35;5.78;;;3.00;;
25780;SDS011;13626;48.128;11.628;2022-10-17T08:37:02;4.90;;;3.42;;
25780;SDS011;13626;48.128;11.628;2022-10-17T08:39:29;6.05;;;2.88;;
25780;SDS011;13626;48.128;11.628;2022-10-17T08:47:10;3.83;;;2.83;;
25780;SDS011;13626;48.128;11.628;2022-10-17T08:49:52;7.03;;;3.00;;
25780;SDS011;13626;48.128;11.628;2022-10-17T08:52:25;2.85;;;2.55;;
25780;SDS011;13626;48.128;11.628;2022-10-17T08:54:55;3.97;;;2.83;;
25780;SDS011;13626;48.128;11.628;2022-10-17T08:57:23;3.80;;;2.30;;
25780;SDS011;13626;48.128;11.628;2022-10-17T08:59:55;6.22;;;2.80;;
25780;SDS011;13626;48.128;11.628;2022-10-17T09:12:26;3.30;;;2.80;;
25780;SDS011;13626;48.128;11.628;2022-10-17T09:17:37;5.25;;;3.40;;
25780;SDS011;13626;48.128;11.628;2022-10-17T09:22:44;3.92;;;3.22;;
25780;SDS011;13626;48.128;11.628;2022-10-17T09:25:14;4.20;;;3.15;;
25780;SDS011;13626;48.128;11.628;2022-10-17T09:27:46;3.15;;;2.85;;
25780;SDS011;13626;48.128;11.628;2022-10-17T09:35:58;4.88;;;2.90;;
25780;SDS011;13626;48.128;11.628;2022-10-17T09:38:28;6.10;;;2.97;;
25780;SDS011;13626;48.128;11.628;2022-10-17T09:43:27;5.32;;;2.60;;
25780;SDS011;13626;48.128;11.628;2022-10-17T09:48:30;5.13;;;3.05;;
25780;SDS011;13626;48.128;11.628;2022-10-17T09:50:58;4.15;;;2.65;;
25780;SDS011;13626;48.128;11.628;2022-10-17T09:53:47;4.93;;;2.65;;
25780;SDS011;13626;48.128;11.628;2022-10-17T09:56:17;3.85;;;2.50;;
25780;SDS011;13626;48.128;11.628;2022-10-17T09:58:46;5.68;;;2.60;;
25780;SDS011;13626;48.128;11.628;2022-10-17T10:01:15;3.10;;;2.47;;
25780;SDS011;13626;48.128;11.628;2022-10-17T10:04:10;4.30;;;2.75;;
25780;SDS011;13626;48.128;11.628;2022-10-17T10:06:37;5.07;;;2.60;;
25780;SDS011;13626;48.128;11.628;2022-10-17T10:09:05;3.40;;;2.50;;
25780;SDS011;13626;48.128;11.628;2022-10-17T10:11:52;5.25;;;2.20;;
25780;SDS011;13626;48.128;11.628;2022-10-17T10:14:30;3.00;;;2.70;;
25780;SDS011;13626;48.128;11.628;2022-10-17T10:17:02;3.05;;;2.67;;
25780;SDS011;13626;48.128;11.628;2022-10-17T10:19:30;2.97;;;2.50;;
25780;SDS011;13626;48.128;11.628;2022-10-17T10:21:59;3.95;;;2.38;;
25780;SDS011;13626;48.128;11.628;2022-10-17T10:24:26;6.18;;;3.03;;
25780;SDS011;13626;48.128;11.628;2022-10-17T10:26:57;3.45;;;2.67;;
25780;SDS011;13626;48.128;11.628;2022-10-17T10:29:32;2.97;;;2.50;;
25780;SDS011;13626;48.128;11.628;2022-10-17T10:34:34;3.00;;;2.70;;
25780;SDS011;13626;48.128;11.628;2022-10-17T10:37:13;3.85;;;2.58;;
25780;SDS011;13626;48.128;11.628;2022-10-17T10:39:49;4.32;;;2.85;;
25780;SDS011;13626;48.128;11.628;2022-10-17T10:42:25;2.97;;;2.50;;
25780;SDS011;13626;48.128;11.628;2022-10-17T10:44:57;4.40;;;2.28;;
25780;SDS011;13626;48.128;11.628;2022-10-17T10:47:26;3.03;;;2.50;;
25780;SDS011;13626;48.128;11.628;2022-10-17T10:52:42;4.82;;;2.40;;
25780;SDS011;13626;48.128;11.628;2022-10-17T10:57:44;6.07;;;2.67;;
25780;SDS011;13626;48.128;11.628;2022-10-17T11:00:20;3.50;;;2.50;;
25780;SDS011;13626;48.128;11.628;2022-10-17T11:03:05;3.05;;;2.25;;
25780;SDS011;13626;48.128;11.628;2022-10-17T11:05:40;2.50;;;2.30;;
25780;SDS011;13626;48.128;11.628;2022-10-17T11:10:38;2.67;;;2.10;;
25780;SDS011;13626;48.128;11.628;2022-10-17T11:13:16;5.05;;;2.47;;
25780;SDS011;13626;48.128;11.628;2022-10-17T11:18:21;5.38;;;2.50;;
25780;SDS011;13626;48.128;11.628;2022-10-17T11:21:35;2.83;;;2.40;;
25780;SDS011;13626;48.128;11.628;2022-10-17T11:26:19;3.10;;;2.40;;
25780;SDS011;13626;48.128;11.628;2022-10-17T11:28:52;3.53;;;2.17;;
25780;SDS011;13626;48.128;11.628;2022-10-17T11:31:20;4.90;;;2.50;;
25780;SDS011;13626;48.128;11.628;2022-10-17T11:33:55;4.68;;;2.40;;
25780;SDS011;13626;48.128;11.628;2022-10-17T11:36:25;2.72;;;2.25;;
25780;SDS011;13626;48.128;11.628;2022-10-17T11:39:03;3.03;;;2.20;;
25780;SDS011;13626;48.128;11.628;2022-10-17T11:46:49;2.90;;;2.08;;
25780;SDS011;13626;48.128;11.628;2022-10-17T11:49:18;4.43;;;2.50;;
25780;SDS011;13626;48.128;11.628;2022-10-17T11:51:54;2.50;;;2.17;;
25780;SDS011;13626;48.128;11.628;2022-10-17T12:10:32;5.40;;;2.40;;
25780;SDS011;13626;48.128;11.628;2022-10-17T12:15:46;3.03;;;2.17;;
25780;SDS011;13626;48.128;11.628;2022-10-17T12:18:14;3.97;;;2.08;;
25780;SDS011;13626;48.128;11.628;2022-10-17T12:20:42;1.73;;;1.63;;
25780;SDS011;13626;48.128;11.628;2022-10-17T12:25:38;2.72;;;2.30;;
25780;SDS011;13626;48.128;11.628;2022-10-17T12:30:54;2.58;;;1.73;;
25780;SDS011;13626;48.128;11.628;2022-10-17T12:35:51;3.45;;;2.20;;
25780;SDS011;13626;48.128;11.628;2022-10-17T12:38:37;3.15;;;2.28;;
25780;SDS011;13626;48.128;11.628;2022-10-17T12:41:05;3.85;;;2.10;;
25780;SDS011;13626;48.128;11.628;2022-10-17T12:43:34;2.15;;;1.95;;
25780;SDS011;13626;48.128;11.628;2022-10-17T12:46:06;2.75;;;1.90;;
25780;SDS011;13626;48.128;11.628;2022-10-17T12:58:57;3.58;;;2.08;;
25780;SDS011;13626;48.128;11.628;2022-10-17T13:01:30;1.83;;;1.67;;
25780;SDS011;13626;48.128;11.628;2022-10-17T13:03:57;2.00;;;1.85;;
25780;SDS011;13626;48.128;11.628;2022-10-17T13:06:28;2.20;;;2.00;;
25780;SDS011;13626;48.128;11.628;2022-10-17T13:09:02;4.30;;;1.95;;
25780;SDS011;13626;48.128;11.628;2022-10-17T13:11:33;2.00;;;1.80;;
25780;SDS011;13626;48.128;11.628;2022-10-17T13:14:02;5.82;;;2.00;;
25780;SDS011;13626;48.128;11.628;2022-10-17T13:16:33;5.70;;;2.15;;
25780;SDS011;13626;48.128;11.628;2022-10-17T13:19:02;3.08;;;2.20;;
25780;SDS011;13626;48.128;11.628;2022-10-17T13:21:30;2.38;;;2.00;;
25780;SDS011;13626;48.128;11.628;2022-10-17T13:23:57;3.42;;;2.20;;
25780;SDS011;13626;48.128;11.628;2022-10-17T13:26:26;2.70;;;1.90;;
25780;SDS011;13626;48.128;11.628;2022-10-17T13:29:03;7.18;;;2.10;;
25780;SDS011;13626;48.128;11.628;2022-10-17T13:31:35;2.03;;;1.73;;
25780;SDS011;13626;48.128;11.628;2022-10-17T13:34:03;1.92;;;1.73;;
25780;SDS011;13626;48.128;11.628;2022-10-17T13:36:31;4.18;;;2.30;;
25780;SDS011;13626;48.128;11.628;2022-10-17T13:38:59;3.45;;;1.90;;
25780;SDS011;13626;48.128;11.628;2022-10-17T13:41:32;1.80;;;1.60;;
25780;SDS011;13626;48.128;11.628;2022-10-17T13:44:02;2.67;;;1.75;;
25780;SDS011;13626;48.128;11.628;2022-10-17T13:46:30;1.85;;;1.67;;
25780;SDS011;13626;48.128;11.628;2022-10-17T13:49:15;2.58;;;1.83;;
25780;SDS011;13626;48.128;11.628;2022-10-17T13:51:47;2.53;;;1.88;;
25780;SDS011;13626;48.128;11.628;2022-10-17T13:54:16;2.33;;;1.73;;
25780;SDS011;13626;48.128;11.628;2022-10-17T13:56:44;2.95;;;1.52;;
25780;SDS011;13626;48.128;11.628;2022-10-17T13:59:18;1.88;;;1.70;;
25780;SDS011;13626;48.128;11.628;2022-10-17T14:01:48;2.72;;;1.77;;
25780;SDS011;13626;48.128;11.628;2022-10-17T14:04:19;2.58;;;1.90;;
25780;SDS011;13626;48.128;11.628;2022-10-17T14:06:47;2.47;;;1.80;;
25780;SDS011;13626;48.128;11.628;2022-10-17T14:09:22;3.13;;;1.67;;
25780;SDS011;13626;48.128;11.628;2022-10-17T14:12:02;2.53;;;1.90;;
25780;SDS011;13626;48.128;11.628;2022-10-17T14:14:32;6.00;;;2.08;;
25780;SDS011;13626;48.128;11.628;2022-10-17T14:17:24;2.17;;;1.98;;
25780;SDS011;13626;48.128;11.628;2022-10-17T14:19:52;2.70;;;2.50;;
25780;SDS011;13626;48.128;11.628;2022-10-17T14:22:40;3.05;;;1.80;;
25780;SDS011;13626;48.128;11.628;2022-10-17T14:30:34;4.40;;;1.95;;
25780;SDS011;13626;48.128;11.628;2022-10-17T14:33:23;2.72;;;2.35;;
25780;SDS011;13626;48.128;11.628;2022-10-17T14:36:01;4.63;;;1.85;;
25780;SDS011;13626;48.128;11.628;2022-10-17T14:38:32;2.80;;;2.08;;
25780;SDS011;13626;48.128;11.628;2022-10-17T14:44:25;2.90;;;1.88;;
25780;SDS011;13626;48.128;11.628;2022-10-17T14:47:15;2.77;;;1.87;;
25780;SDS011;13626;48.128;11.628;2022-10-17T14:53:06;3.97;;;1.98;;
25780;SDS011;13626;48.128;11.628;2022-10-17T14:56:02;5.68;;;2.55;;
25780;SDS011;13626;48.128;11.628;2022-10-17T14:58:40;3.88;;;2.05;;
25780;SDS011;13626;48.128;11.628;2022-10-17T15:01:16;2.45;;;2.13;;
25780;SDS011;13626;48.128;11.628;2022-10-17T15:03:52;2.38;;;2.10;;
25780;SDS011;13626;48.128;11.628;2022-10-17T15:06:29;2.38;;;2.08;;
25780;SDS011;13626;48.128;11.628;2022-10-17T15:09:00;3.42;;;2.05;;
25780;SDS011;13626;48.128;11.628;2022-10-17T15:11:28;2.50;;;2.03;;
25780;SDS011;13626;48.128;11.628;2022-10-17T15:13:55;5.53;;;2.00;;
25780;SDS011;13626;48.128;11.628;2022-10-17T15:18:50;3.72;;;1.73;;
25780;SDS011;13626;48.128;11.628;2022-10-17T15:21:18;3.33;;;2.65;;
25780;SDS011;13626;48.128;11.628;2022-10-17T15:26:30;2.42;;;1.95;;
25780;SDS011;13626;48.128;11.628;2022-10-17T15:28:58;5.22;;;2.58;;
25780;SDS011;13626;48.128;11.628;2022-10-17T15:31:27;3.33;;;2.13;;
25780;SDS011;13626;48.128;11.628;2022-10-17T15:33:54;3.67;;;2.47;;
25780;SDS011;13626;48.128;11.628;2022-10-17T15:36:25;3.13;;;2.10;;
25780;SDS011;13626;48.128;11.628;2022-10-17T15:38:54;2.65;;;2.13;;
25780;SDS011;13626;48.128;11.628;2022-10-17T15:41:22;4.22;;;2.40;;
25780;SDS011;13626;48.128;11.628;2022-10-17T15:43:50;2.85;;;2.45;;
25780;SDS011;13626;48.128;11.628;2022-10-17T15:46:18;2.75;;;2.20;;
25780;SDS011;13626;48.128;11.628;2022-10-17T15:48:47;3.58;;;1.90;;
25780;SDS011;13626;48.128;11.628;2022-10-17T15:51:15;2.90;;;2.17;;
25780;SDS011;13626;48.128;11.628;2022-10-17T15:53:42;2.13;;;1.92;;
25780;SDS011;13626;48.128;11.628;2022-10-17T15:56:17;4.10;;;2.03;;
25780;SDS011;13626;48.128;11.628;2022-10-17T16:01:28;3.47;;;1.95;;
25780;SDS011;13626;48.128;11.628;2022-10-17T16:03:56;2.57;;;2.30;;
25780;SDS011;13626;48.128;11.628;2022-10-17T16:06:24;5.68;;;2.35;;
25780;SDS011;13626;48.128;11.628;2022-10-17T16:08:52;7.50;;;3.17;;
25780;SDS011;13626;48.128;11.628;2022-10-17T16:14:03;2.78;;;2.35;;
25780;SDS011;13626;48.128;11.628;2022-10-17T16:16:30;2.78;;;2.20;;
25780;SDS011;13626;48.128;11.628;2022-10-17T16:18:58;3.40;;;2.40;;
25780;SDS011;13626;48.128;11.628;2022-10-17T16:21:27;3.05;;;2.40;;
25780;SDS011;13626;48.128;11.628;2022-10-17T16:23:56;3.30;;;2.50;;
25780;SDS011;13626;48.128;11.628;2022-10-17T16:26:24;3.70;;;2.47;;
25780;SDS011;13626;48.128;11.628;2022-10-17T16:28:51;3.28;;;2.58;;
25780;SDS011;13626;48.128;11.628;2022-10-17T16:31:22;3.15;;;2.15;;
25780;SDS011;13626;48.128;11.628;2022-10-17T16:33:51;3.75;;;2.50;;
25780;SDS011;13626;48.128;11.628;2022-10-17T16:36:18;4.13;;;2.80;;
25780;SDS011;13626;48.128;11.628;2022-10-17T16:38:46;3.55;;;2.70;;
25780;SDS011;13626;48.128;11.628;2022-10-17T16:41:21;3.63;;;2.30;;
25780;SDS011;13626;48.128;11.628;2022-10-17T16:43:49;3.05;;;2.50;;
25780;SDS011;13626;48.128;11.628;2022-10-17T16:46:17;8.07;;;2.80;;
25780;SDS011;13626;48.128;11.628;2022-10-17T16:48:45;5.82;;;2.65;;
25780;SDS011;13626;48.128;11.628;2022-10-17T16:51:12;5.50;;;2.60;;
25780;SDS011;13626;48.128;11.628;2022-10-17T16:53:40;3.50;;;2.38;;
25780;SDS011;13626;48.128;11.628;2022-10-17T16:56:11;4.82;;;2.88;;
25780;SDS011;13626;48.128;11.628;2022-10-17T16:58:39;4.40;;;2.90;;
25780;SDS011;13626;48.128;11.628;2022-10-17T17:01:08;3.63;;;2.38;;
25780;SDS011;13626;48.128;11.628;2022-10-17T17:03:36;3.03;;;2.13;;
25780;SDS011;13626;48.128;11.628;2022-10-17T17:06:04;8.77;;;3.08;;
25780;SDS011;13626;48.128;11.628;2022-10-17T17:08:32;6.30;;;2.25;;
25780;SDS011;13626;48.128;11.628;2022-10-17T17:10:59;5.50;;;2.70;;
25780;SDS011;13626;48.128;11.628;2022-10-17T17:13:26;4.60;;;2.78;;
25780;SDS011;13626;48.128;11.628;2022-10-17T17:16:04;8.55;;;3.78;;
25780;SDS011;13626;48.128;11.628;2022-10-17T17:18:32;5.93;;;2.95;;